Time;durP1;ratioP1;P1;durP2;ratioP2;P2;SDS_P1;SDS_P2;PMS_P1;PMS_P2;Temp;Humidity;BMP_temperature;BMP_pressure;BME280_temperature;BME280_humidity;BME280_pressure;Samples;Min_cycle;Max_cycle;Signal;HPM_P1;HPM_P2
2021/03/18 00:00:31;;;;;;;6.57;2.40;;;;;;;2.23;86.54;101157.56;656721;217;24855;-76
2021/03/18 00:02:58;;;;;;;3.40;2.30;;;;;;;2.18;86.56;101153.93;641967;221;24885;-75
2021/03/18 00:05:26;;;;;;;5.60;1.80;;;;;;;2.13;86.57;101149.46;651225;217;24860;-75
2021/03/18 00:07:54;;;;;;;9.70;2.73;;;;;;;2.13;86.04;101157.16;657773;217;24861;-76
2021/03/18 00:10:22;;;;;;;8.97;2.50;;;;;;;2.29;85.31;101149.61;647283;221;24898;-76
2021/03/18 00:12:50;;;;;;;3.13;1.90;;;;;;;2.17;84.71;101145.02;650744;220;24888;-76
2021/03/18 00:15:19;;;;;;;9.97;2.30;;;;;;;2.15;85.20;101141.24;657128;217;24862;-76
2021/03/18 00:17:47;;;;;;;3.13;2.00;;;;;;;2.06;85.19;101141.64;651721;218;24859;-75
2021/03/18 00:20:15;;;;;;;5.70;2.50;;;;;;;1.78;88.27;101158.68;641784;217;32568;-76
2021/03/18 00:22:43;;;;;;;2.87;2.33;;;;;;;1.75;87.32;101164.78;652109;217;23725;-76
2021/03/18 00:25:12;;;;;;;5.57;2.10;;;;;;;1.77;86.14;101153.17;641318;221;24888;-76
2021/03/18 00:27:39;;;;;;;8.03;2.10;;;;;;;1.86;85.74;101148.94;648925;219;24846;-76
2021/03/18 00:30:09;;;;;;;7.37;2.27;;;;;;;1.96;85.98;101144.22;653989;217;24847;-76
2021/03/18 00:32:36;;;;;;;5.53;1.70;;;;;;;1.97;85.22;101150.59;636762;221;24919;-76
2021/03/18 00:35:05;;;;;;;2.17;1.67;;;;;;;2.02;85.44;101138.84;648026;220;24938;-76
2021/03/18 00:37:33;;;;;;;4.30;1.57;;;;;;;2.04;84.41;101145.56;635474;221;24885;-76
2021/03/18 00:40:01;;;;;;;2.00;1.60;;;;;;;2.15;85.40;101152.79;640256;221;24959;-76
2021/03/18 00:42:29;;;;;;;5.05;2.30;;;;;;;2.17;85.76;101162.53;639885;220;43731;-76
2021/03/18 00:44:57;;;;;;;3.63;2.00;;;;;;;2.13;85.50;101164.86;639458;221;26936;-76
2021/03/18 00:47:25;;;;;;;4.77;1.97;;;;;;;2.14;85.29;101160.56;653334;218;24927;-76
2021/03/18 00:49:53;;;;;;;2.90;1.60;;;;;;;2.13;84.33;101149.91;644232;222;24893;-76
2021/03/18 00:52:21;;;;;;;3.07;1.80;;;;;;;2.15;84.16;101146.38;643247;221;24892;-74
2021/03/18 00:54:49;;;;;;;5.63;1.50;;;;;;;2.24;83.59;101136.13;635726;222;24904;-74
2021/03/18 00:57:16;;;;;;;2.77;1.50;;;;;;;2.23;82.45;101124.20;646857;221;24833;-76
2021/03/18 00:59:44;;;;;;;5.83;1.97;;;;;;;2.24;82.35;101115.14;638863;222;24922;-76
2021/03/18 01:02:12;;;;;;;3.23;1.70;;;;;;;2.08;83.03;101109.88;650059;217;24863;-76
2021/03/18 01:04:40;;;;;;;7.10;1.67;;;;;;;2.15;82.71;101105.32;643647;222;24951;-76
2021/03/18 01:07:08;;;;;;;3.98;1.70;;;;;;;2.24;82.02;101101.48;642878;217;32534;-76
2021/03/18 01:09:36;;;;;;;3.00;1.33;;;;;;;2.12;83.25;101093.92;648159;217;25895;-75
2021/03/18 01:12:04;;;;;;;4.17;1.97;;;;;;;2.05;82.79;101088.67;650252;218;24849;-76
2021/03/18 01:14:32;;;;;;;2.97;1.63;;;;;;;1.99;83.37;101092.36;635843;222;25267;-76
2021/03/18 01:17:00;;;;;;;5.10;2.00;;;;;;;2.06;83.42;101100.59;634827;222;33064;-76
2021/03/18 01:19:28;;;;;;;3.77;1.85;;;;;;;2.05;82.84;101104.06;643102;219;32601;-76
2021/03/18 01:21:56;;;;;;;2.80;2.03;;;;;;;1.87;84.02;101101.87;651875;216;23721;-76
2021/03/18 01:24:23;;;;;;;3.10;2.23;;;;;;;1.79;84.49;101104.77;650175;221;24904;-76
2021/03/18 01:26:51;;;;;;;4.10;1.60;;;;;;;1.71;84.86;101117.55;655691;217;24872;-76
2021/03/18 01:29:19;;;;;;;9.40;2.20;;;;;;;1.59;85.30;101113.78;646817;220;24902;-76
2021/03/18 01:31:47;;;;;;;3.60;1.90;;;;;;;1.58;85.66;101120.25;647385;221;24822;-76
2021/03/18 01:34:15;;;;;;;8.00;2.07;;;;;;;1.51;86.00;101126.08;640705;222;25991;-76
2021/03/18 01:36:43;;;;;;;3.27;1.73;;;;;;;1.52;85.95;101118.77;637493;221;24947;-76
2021/03/18 01:39:11;;;;;;;4.20;1.80;;;;;;;1.60;86.34;101123.13;636208;222;24923;-76
2021/03/18 01:41:38;;;;;;;3.23;1.50;;;;;;;1.60;85.63;101116.72;638373;222;28057;-76
2021/03/18 01:44:07;;;;;;;3.50;2.17;;;;;;;1.60;85.46;101119.28;641721;221;25972;-76
2021/03/18 01:46:34;;;;;;;3.77;1.77;;;;;;;1.65;85.53;101116.52;651959;217;24889;-76
2021/03/18 01:49:02;;;;;;;3.53;3.23;;;;;;;1.61;85.02;101115.83;642882;221;25643;-76
2021/03/18 01:51:31;;;;;;;4.80;2.17;;;;;;;1.62;84.74;101110.24;636992;222;25195;-76
2021/03/18 01:53:58;;;;;;;4.17;1.87;;;;;;;1.61;84.93;101105.56;643467;222;24904;-76
2021/03/18 01:56:26;;;;;;;4.97;2.03;;;;;;;1.56;85.42;101106.67;637672;221;24891;-76
2021/03/18 01:58:54;;;;;;;6.20;1.37;;;;;;;1.47;86.34;101111.73;643622;220;28128;-76
2021/03/18 02:01:22;;;;;;;1.90;1.70;;;;;;;1.28;87.98;101119.82;641680;221;24894;-76
2021/03/18 02:03:50;;;;;;;3.13;1.80;;;;;;;1.16;88.85;101134.79;650178;217;24948;-76
2021/03/18 02:06:18;;;;;;;4.95;2.70;;;;;;;1.28;87.30;101125.77;645874;217;32603;-76
2021/03/18 02:08:45;;;;;;;3.57;1.93;;;;;;;1.28;86.77;101123.66;652371;218;23887;-74
2021/03/18 02:11:13;;;;;;;10.17;2.10;;;;;;;1.39;85.55;101120.17;641199;222;24914;-75
2021/03/18 02:13:41;;;;;;;3.47;1.97;;;;;;;1.60;84.25;101109.48;646443;221;24958;-76
2021/03/18 02:16:09;;;;;;;3.50;2.00;;;;;;;1.47;85.01;101108.72;636176;222;24952;-76
2021/03/18 02:18:41;;;;;;;2.98;1.55;;;;;;;1.48;85.69;101114.23;632384;222;32548;-75
2021/03/18 02:21:30;;;;;;;6.53;2.50;;;;;;;1.34;85.85;101125.50;648850;217;23698;-76
2021/03/18 02:24:10;;;;;;;5.05;1.85;;;;;;;1.49;85.26;101125.31;647920;217;32497;-76
2021/03/18 02:27:08;;;;;;;4.00;2.00;;;;;;;0.93;87.89;101134.87;644206;221;23773;-75
2021/03/18 02:29:59;;;;;;;2.60;1.67;;;;;;;1.02;89.67;101146.04;640434;222;29125;-76
2021/03/18 02:32:30;;;;;;;3.53;1.70;;;;;;;1.08;89.27;101153.47;631963;222;27054;-75
2021/03/18 02:35:16;;;;;;;3.87;1.80;;;;;;;1.18;88.91;101148.37;634452;221;43670;-76
2021/03/18 02:37:44;;;;;;;1.90;1.70;;;;;;;1.19;87.86;101148.75;644231;221;23790;-75
2021/03/18 02:40:13;;;;;;;3.50;1.70;;;;;;;1.40;87.29;101139.33;644830;218;32602;-76
2021/03/18 02:42:41;;;;;;;3.33;1.53;;;;;;;1.24;87.00;101145.16;646132;218;23741;-76
2021/03/18 02:45:09;;;;;;;5.05;2.00;;;;;;;1.38;85.76;101133.44;647578;217;32535;-76
2021/03/18 02:47:37;;;;;;;3.90;1.70;;;;;;;1.18;86.49;101130.88;649005;217;23737;-75
2021/03/18 02:50:07;;;;;;;8.17;2.20;;;;;;;1.24;85.92;101129.34;640221;222;31312;-75
2021/03/18 02:52:35;;;;;;;2.00;1.67;;;;;;;1.17;86.25;101131.33;645826;221;24931;-75
2021/03/18 02:55:03;;;;;;;4.05;1.50;;;;;;;1.13;86.83;101129.80;636983;221;32681;-76
2021/03/18 02:57:31;;;;;;;7.60;2.00;;;;;;;1.09;86.79;101132.08;640774;221;23918;-75
2021/03/18 02:59:59;;;;;;;4.60;2.30;;;;;;;1.11;86.32;101130.28;641719;221;24889;-75
2021/03/18 03:02:27;;;;;;;2.20;1.80;;;;;;;1.17;85.43;101118.97;654039;217;27039;-75
2021/03/18 03:04:55;;;;;;;2.10;1.50;;;;;;;1.18;85.11;101113.78;652115;219;26285;-75
2021/03/18 03:07:23;;;;;;;4.53;1.90;;;;;;;1.25;85.24;101118.19;649973;218;32510;-75
2021/03/18 03:09:51;;;;;;;4.43;2.20;;;;;;;1.09;85.45;101114.14;651967;218;23759;-75
2021/03/18 03:12:20;;;;;;;5.30;2.40;;;;;;;1.06;86.45;101126.25;646727;217;25041;-76
2021/03/18 03:14:48;;;;;;;7.65;2.15;;;;;;;1.07;86.57;101130.48;643176;217;32828;-75
2021/03/18 03:17:16;;;;;;;3.47;2.43;;;;;;;1.00;86.62;101128.63;640745;222;24053;-75
2021/03/18 03:19:44;;;;;;;2.83;2.30;;;;;;;0.98;86.94;101132.95;646188;222;24918;-74
2021/03/18 03:22:12;;;;;;;4.97;1.80;;;;;;;0.94;87.08;101130.13;643255;221;24896;-75
2021/03/18 03:24:41;;;;;;;2.65;1.90;;;;;;;0.99;87.63;101134.64;634079;222;32700;-75
2021/03/18 03:27:09;;;;;;;3.60;1.70;;;;;;;1.09;86.00;101126.95;636907;222;32948;-75
2021/03/18 03:29:37;;;;;;;4.13;1.70;;;;;;;1.28;85.63;101123.66;646347;218;32526;-75
2021/03/18 03:32:05;;;;;;;3.63;2.37;;;;;;;1.25;85.76;101128.89;645922;219;27006;-74
2021/03/18 03:34:33;;;;;;;1.60;1.50;;;;;;;1.34;85.01;101120.83;645173;218;24860;-75
2021/03/18 03:37:01;;;;;;;7.30;2.15;;;;;;;1.38;85.17;101115.95;642650;217;32512;-75
2021/03/18 03:39:29;;;;;;;6.43;2.07;;;;;;;1.29;85.57;101118.92;651627;217;23733;-75
2021/03/18 03:41:57;;;;;;;3.92;1.90;;;;;;;1.40;84.24;101122.67;631710;222;32857;-74
2021/03/18 03:44:25;;;;;;;6.80;2.33;;;;;;;1.43;84.34;101111.48;633574;222;32720;-75
2021/03/18 03:46:52;;;;;;;2.30;2.00;;;;;;;1.21;86.41;101127.35;647183;219;23791;-75
2021/03/18 03:49:20;;;;;;;2.00;1.80;;;;;;;1.14;86.11;101131.46;650220;221;24831;-74
2021/03/18 03:51:50;;;;;;;4.58;2.50;;;;;;;1.27;86.31;101141.18;637836;221;43436;-75
2021/03/18 03:54:17;;;;;;;4.50;2.53;;;;;;;1.06;86.82;101133.48;653319;217;23753;-74
2021/03/18 03:56:46;;;;;;;5.15;2.30;;;;;;;1.06;87.20;101138.61;637500;220;33479;-74
2021/03/18 03:59:15;;;;;;;6.25;2.20;;;;;;;1.09;87.03;101138.93;640970;221;32869;-75
2021/03/18 04:01:42;;;;;;;4.53;2.50;;;;;;;0.95;88.05;101140.76;643295;220;23766;-74
2021/03/18 04:04:11;;;;;;;3.73;2.00;;;;;;;1.03;87.82;101146.88;644305;221;24890;-75
2021/03/18 04:06:39;;;;;;;3.37;1.80;;;;;;;0.86;88.08;101143.70;644270;220;24912;-75
2021/03/18 04:09:07;;;;;;;6.05;2.40;;;;;;;0.92;89.45;101153.69;635753;221;32695;-75
2021/03/18 04:11:35;;;;;;;10.83;2.40;;;;;;;0.92;89.38;101149.02;650226;218;23739;-75
2021/03/18 04:14:03;;;;;;;4.87;1.83;;;;;;;1.04;87.70;101134.00;643322;221;25161;-75
2021/03/18 04:16:31;;;;;;;6.50;2.30;;;;;;;1.18;88.43;101130.88;639559;221;32794;-75
2021/03/18 04:19:00;;;;;;;3.53;1.93;;;;;;;1.09;87.87;101133.36;648401;220;23845;-75
2021/03/18 04:21:28;;;;;;;5.93;2.20;;;;;;;1.14;87.39;101128.91;645704;221;27048;-75
2021/03/18 04:23:56;;;;;;;3.80;2.37;;;;;;;1.22;86.00;101118.77;642551;221;24902;-75
2021/03/18 04:26:23;;;;;;;7.40;2.23;;;;;;;1.24;87.36;101119.53;641375;222;24869;-75
2021/03/18 04:28:51;;;;;;;4.35;2.20;;;;;;;1.34;87.20;101118.27;635541;222;33367;-75
2021/03/18 04:31:19;;;;;;;3.20;2.20;;;;;;;1.25;88.55;101127.60;631225;222;32675;-76
2021/03/18 04:33:47;;;;;;;7.33;2.47;;;;;;;1.29;88.29;101131.73;644231;222;26961;-76
2021/03/18 04:36:15;;;;;;;3.63;1.70;;;;;;;1.23;88.39;101125.56;642443;222;24946;-75
2021/03/18 04:38:43;;;;;;;2.50;2.30;;;;;;;1.45;88.07;101132.30;641788;222;26080;-75
2021/03/18 04:41:11;;;;;;;6.78;2.50;;;;;;;1.95;86.24;101129.28;633607;222;32775;-73
2021/03/18 04:43:39;;;;;;;4.00;2.20;;;;;;;2.25;84.70;101114.27;632242;222;32686;-75
2021/03/18 04:46:07;;;;;;;5.13;2.10;;;;;;;1.94;84.81;101114.80;643023;222;27985;-75
2021/03/18 04:48:35;;;;;;;3.63;1.97;;;;;;;1.93;85.01;101118.26;647161;219;26023;-76
2021/03/18 04:51:05;;;;;;;2.08;1.80;;;;;;;2.55;82.84;101112.48;638415;218;32526;-75
2021/03/18 04:53:33;;;;;;;8.47;2.80;;;;;;;2.25;83.62;101097.59;644946;219;23745;-75
2021/03/18 04:56:01;;;;;;;3.97;2.40;;;;;;;2.16;83.87;101110.83;647789;218;24931;-76
2021/03/18 04:58:29;;;;;;;5.53;1.90;;;;;;;2.18;83.32;101110.76;653302;217;24898;-75
2021/03/18 05:00:57;;;;;;;5.07;2.10;;;;;;;1.91;83.72;101112.37;639279;221;24964;-74
2021/03/18 05:03:25;;;;;;;4.10;2.20;;;;;;;1.69;84.35;101116.34;645841;220;25051;-75
2021/03/18 05:05:53;;;;;;;2.50;2.30;;;;;;;1.67;84.65;101121.13;645662;221;24948;-75
2021/03/18 05:08:21;;;;;;;12.30;2.40;;;;;;;1.43;85.41;101122.56;635163;221;24946;-76
2021/03/18 05:10:49;;;;;;;3.67;2.20;;;;;;;1.60;85.83;101130.82;654149;217;24844;-76
2021/03/18 05:13:17;;;;;;;3.67;1.70;;;;;;;1.30;86.12;101132.11;652527;218;28005;-75
2021/03/18 05:15:45;;;;;;;6.17;2.20;;;;;;;1.26;87.12;101134.39;641518;221;24934;-76
2021/03/18 05:18:13;;;;;;;6.10;1.87;;;;;;;1.09;87.57;101134.64;637080;221;24945;-75
2021/03/18 05:20:41;;;;;;;3.80;2.10;;;;;;;1.70;86.22;101131.27;641661;220;43387;-75
2021/03/18 05:23:09;;;;;;;3.57;2.60;;;;;;;1.51;86.60;101129.92;647116;221;23742;-76
2021/03/18 05:25:37;;;;;;;3.20;2.73;;;;;;;1.45;86.82;101123.78;641115;221;28112;-76
2021/03/18 05:28:05;;;;;;;3.10;2.60;;;;;;;1.38;87.25;101136.45;645133;221;24940;-75
2021/03/18 05:30:32;;;;;;;4.50;2.60;;;;;;;1.19;88.11;101138.95;639534;221;24881;-75
2021/03/18 05:33:00;;;;;;;7.90;3.90;;;;;;;1.22;88.03;101143.11;642286;221;24936;-75
2021/03/18 05:35:28;;;;;;;5.73;2.70;;;;;;;1.22;88.25;101145.67;640241;222;24920;-76
2021/03/18 05:37:56;;;;;;;5.47;2.77;;;;;;;1.19;87.79;101142.34;643508;222;28127;-76
2021/03/18 05:40:24;;;;;;;6.30;2.00;;;;;;;1.01;88.07;101134.12;650055;218;24840;-75
2021/03/18 05:42:52;;;;;;;5.70;2.50;;;;;;;1.43;87.41;101139.67;642003;219;33294;-76
2021/03/18 05:45:20;;;;;;;5.90;3.15;;;;;;;1.68;86.84;101133.88;640575;218;32537;-76
2021/03/18 05:47:48;;;;;;;3.20;2.53;;;;;;;1.11;87.99;101136.69;659176;217;26894;-75
2021/03/18 05:50:16;;;;;;;4.20;2.87;;;;;;;1.07;88.80;101145.84;648218;221;24979;-75
2021/03/18 05:52:44;;;;;;;6.23;2.50;;;;;;;1.00;89.41;101151.67;647775;217;24893;-75
2021/03/18 05:55:13;;;;;;;3.40;2.20;;;;;;;0.86;89.43;101152.67;634696;222;24951;-77
2021/03/18 05:57:41;;;;;;;3.10;2.20;;;;;;;1.02;89.58;101147.32;640304;222;28035;-75
2021/03/18 06:00:10;;;;;;;3.12;2.77;;;;;;;1.63;87.50;101142.22;641357;221;32705;-75
2021/03/18 06:02:38;;;;;;;3.33;2.77;;;;;;;1.30;88.35;101137.23;641203;221;23759;-75
2021/03/18 06:05:07;;;;;;;4.03;2.40;;;;;;;1.29;88.30;101142.81;642350;221;24937;-75
2021/03/18 06:07:36;;;;;;;2.60;2.40;;;;;;;1.37;87.12;101134.79;654921;217;24830;-76
2021/03/18 06:10:05;;;;;;;2.97;2.37;;;;;;;1.45;86.88;101131.02;647867;217;27062;-75
2021/03/18 06:12:33;;;;;;;2.93;2.20;;;;;;;1.52;87.01;101127.73;640359;221;24882;-75
2021/03/18 06:15:01;;;;;;;5.37;2.13;;;;;;;1.58;87.69;101131.34;647894;221;24905;-75
2021/03/18 06:17:29;;;;;;;4.27;2.50;;;;;;;1.63;88.10;101133.70;642153;221;28055;-75
2021/03/18 06:19:57;;;;;;;5.67;2.80;;;;;;;2.12;87.14;101129.84;641345;219;32574;-75
2021/03/18 06:22:33;;;;;;;5.80;2.60;;;;;;;1.86;88.02;101134.00;654320;217;26905;-75
2021/03/18 06:25:01;;;;;;;7.93;3.67;;;;;;;1.97;87.67;101135.63;646107;218;24855;-75
2021/03/18 06:27:29;;;;;;;3.83;3.17;;;;;;;1.90;87.93;101135.52;646850;218;29524;-75
2021/03/18 06:29:57;;;;;;;4.37;2.83;;;;;;;1.99;87.65;101132.56;656443;217;24873;-75
2021/03/18 06:32:25;;;;;;;7.57;2.60;;;;;;;2.11;87.41;101133.73;645463;221;24880;-75
2021/03/18 06:34:53;;;;;;;5.10;2.37;;;;;;;2.19;86.83;101122.69;642369;221;24949;-75
2021/03/18 06:37:29;;;;;;;5.42;2.83;;;;;;;2.59;86.14;101118.67;640431;221;32588;-76
2021/03/18 06:39:56;;;;;;;3.90;2.50;;;;;;;2.22;86.62;101118.23;649512;221;23780;-75
2021/03/18 06:42:24;;;;;;;4.37;2.57;;;;;;;2.17;86.85;101120.64;639240;221;24923;-75
2021/03/18 06:45:07;;;;;;;6.80;3.17;;;;;;;2.07;87.22;101130.02;640450;221;24903;-75
2021/03/18 06:47:44;;;;;;;7.57;3.23;;;;;;;2.06;87.65;101131.38;642050;221;25996;-75
2021/03/18 06:50:13;;;;;;;9.13;4.23;;;;;;;2.15;85.98;101121.17;658394;217;28013;-75
2021/03/18 06:52:41;;;;;;;8.07;4.40;;;;;;;2.31;85.19;101122.97;643796;222;24945;-75
2021/03/18 06:55:09;;;;;;;10.00;3.50;;;;;;;2.38;84.63;101115.80;644406;218;24901;-74
2021/03/18 06:57:37;;;;;;;9.10;3.70;;;;;;;2.29;83.74;101108.09;652190;218;24870;-75
2021/03/18 07:00:08;;;;;;;4.20;3.10;;;;;;;2.51;83.92;101110.94;648645;218;24893;-76
2021/03/18 07:02:40;;;;;;;6.72;3.40;;;;;;;2.97;82.04;101107.03;647339;217;32833;-75
2021/03/18 07:05:17;;;;;;;5.90;3.43;;;;;;;2.36;82.73;101108.17;649375;218;24756;-75
2021/03/18 07:07:47;;;;;;;6.87;3.47;;;;;;;2.36;83.67;101109.45;650626;217;24846;-75
2021/03/18 07:10:15;;;;;;;8.40;4.00;;;;;;;2.62;83.38;101113.84;639307;222;24930;-76
2021/03/18 07:12:43;;;;;;;7.70;4.07;;;;;;;2.73;83.22;101115.45;639348;222;24902;-76
2021/03/18 07:15:18;;;;;;;5.93;4.30;;;;;;;2.90;82.42;101109.05;640020;222;25052;-76
2021/03/18 07:17:45;;;;;;;6.53;3.40;;;;;;;3.02;82.27;101108.91;640621;222;25163;-74
2021/03/18 07:20:15;;;;;;;5.10;3.90;;;;;;;3.20;81.60;101107.17;640386;219;24905;-75
2021/03/18 07:22:44;;;;;;;5.87;3.93;;;;;;;3.35;81.31;101108.15;645053;221;24955;-75
2021/03/18 07:25:13;;;;;;;6.60;3.77;;;;;;;3.41;81.17;101105.28;637507;221;24903;-75
2021/03/18 07:27:42;;;;;;;8.70;3.23;;;;;;;3.54;80.57;101100.73;653377;217;24861;-75
2021/03/18 07:30:12;;;;;;;10.63;4.37;;;;;;;3.87;80.57;101101.17;638479;221;24906;-75
2021/03/18 07:32:40;;;;;;;5.27;3.60;;;;;;;3.90;79.14;101093.74;648645;218;24906;-75
2021/03/18 07:35:09;;;;;;;6.33;4.30;;;;;;;4.38;78.50;101087.27;644959;218;32513;-74
2021/03/18 07:37:37;;;;;;;6.80;3.80;;;;;;;4.73;76.55;101081.44;644782;217;32824;-75
2021/03/18 07:40:06;;;;;;;6.55;3.90;;;;;;;4.57;74.29;101069.05;631387;221;32674;-76
2021/03/18 07:42:34;;;;;;;5.90;2.60;;;;;;;4.15;73.64;101059.36;640044;221;23733;-75
2021/03/18 07:45:02;;;;;;;5.20;2.57;;;;;;;4.06;72.91;101054.70;653406;217;24906;-76
2021/03/18 07:47:30;;;;;;;4.60;3.40;;;;;;;4.15;73.73;101056.33;655648;217;24817;-76
2021/03/18 07:49:57;;;;;;;14.10;2.70;;;;;;;4.23;74.26;101058.95;644889;221;26149;-76
2021/03/18 07:52:26;;;;;;;5.70;2.70;;;;;;;4.42;74.95;101060.88;643353;221;32718;-76
2021/03/18 07:54:55;;;;;;;4.90;3.00;;;;;;;4.13;72.87;101041.42;641931;222;24880;-74
2021/03/18 07:57:22;;;;;;;2.80;1.80;;;;;;;4.25;73.34;101039.10;645530;221;29184;-75
2021/03/18 07:59:50;;;;;;;2.73;2.30;;;;;;;4.39;72.53;101037.88;643459;222;24866;-76
2021/03/18 08:02:17;;;;;;;6.47;3.00;;;;;;;4.49;72.48;101035.14;654123;217;24836;-76
2021/03/18 08:04:46;;;;;;;2.73;1.93;;;;;;;4.58;70.75;101025.62;640024;222;24874;-76
2021/03/18 08:07:20;;;;;;;5.37;2.37;;;;;;;4.53;70.19;101019.91;652263;217;24836;-76
2021/03/18 08:09:50;;;;;;;4.10;2.23;;;;;;;4.65;71.35;101018.39;652999;217;24851;-75
2021/03/18 08:12:23;;;;;;;4.90;2.50;;;;;;;4.72;69.12;101011.50;652883;218;26988;-75
2021/03/18 08:14:51;;;;;;;6.03;2.10;;;;;;;4.57;70.48;101012.84;645952;222;24867;-75
2021/03/18 08:17:27;;;;;;;4.00;2.10;;;;;;;4.77;70.48;101017.66;648704;217;24831;-75
2021/03/18 08:19:55;;;;;;;5.67;2.77;;;;;;;4.84;70.33;101010.42;652758;217;24821;-75
2021/03/18 08:22:28;;;;;;;4.20;2.27;;;;;;;4.87;69.84;101007.20;651422;217;24819;-75
2021/03/18 08:25:15;;;;;;;3.83;2.27;;;;;;;4.93;68.62;101003.00;649537;217;24816;-76
2021/03/18 08:27:43;;;;;;;3.17;2.57;;;;;;;5.11;69.48;101003.66;656169;217;24820;-75
2021/03/18 08:30:20;;;;;;;10.20;3.13;;;;;;;5.32;70.10;101002.37;652978;217;24819;-76
2021/03/18 08:32:48;;;;;;;4.60;2.10;;;;;;;5.04;69.64;101001.06;651088;216;24845;-76
2021/03/18 08:35:26;;;;;;;4.20;2.40;;;;;;;5.47;69.03;101000.61;650958;217;24856;-75
2021/03/18 08:37:55;;;;;;;5.70;3.20;;;;;;;5.60;69.85;101005.40;653958;217;24829;-75
2021/03/18 08:40:29;;;;;;;4.57;2.87;;;;;;;5.35;68.55;100994.94;659839;217;24847;-76
2021/03/18 08:43:02;;;;;;;8.97;3.73;;;;;;;5.52;70.11;100998.61;659967;217;24833;-75
2021/03/18 08:45:44;;;;;;;5.83;3.10;;;;;;;5.85;67.87;101001.31;655010;217;29136;-75
2021/03/18 08:48:17;;;;;;;6.60;3.35;;;;;;;5.87;66.48;100986.09;643923;217;32535;-75
2021/03/18 08:50:48;;;;;;;6.77;3.33;;;;;;;5.61;68.12;100985.59;659462;217;23742;-76
2021/03/18 08:53:27;;;;;;;7.67;3.13;;;;;;;5.39;69.37;100992.99;654326;217;24811;-75
2021/03/18 08:55:55;;;;;;;5.60;2.87;;;;;;;5.31;69.67;100992.98;653288;217;24822;-75
2021/03/18 08:58:23;;;;;;;9.97;3.40;;;;;;;5.17;70.00;100999.87;656341;217;24901;-76
2021/03/18 09:00:50;;;;;;;6.63;3.20;;;;;;;5.21;72.10;101008.66;657905;217;25049;-74
2021/03/18 09:03:18;;;;;;;7.10;3.33;;;;;;;5.48;71.23;101003.56;646080;217;32568;-75
2021/03/18 09:05:51;;;;;;;6.45;3.83;;;;;;;5.83;71.25;101009.16;646725;217;32483;-75
2021/03/18 09:08:22;;;;;;;8.40;3.93;;;;;;;5.80;70.20;101003.36;656517;217;25871;-75
2021/03/18 09:10:50;;;;;;;3.80;3.20;;;;;;;5.89;70.36;101006.64;641133;220;24865;-75
2021/03/18 09:13:18;;;;;;;5.17;3.07;;;;;;;6.13;68.74;101003.86;657064;218;24830;-76
2021/03/18 09:15:46;;;;;;;5.80;3.60;;;;;;;6.25;70.96;101009.54;656984;218;24823;-76
2021/03/18 09:18:15;;;;;;;5.30;3.20;;;;;;;6.10;69.97;101009.69;642321;221;24855;-76
2021/03/18 09:20:43;;;;;;;9.27;3.80;;;;;;;6.13;70.19;101012.06;641217;221;24870;-76
2021/03/18 09:23:11;;;;;;;5.80;2.90;;;;;;;6.14;70.42;101013.72;635729;221;24915;-76
2021/03/18 09:25:39;;;;;;;5.65;3.50;;;;;;;6.52;70.59;101005.65;642721;217;32465;-76
2021/03/18 09:28:07;;;;;;;4.20;3.37;;;;;;;6.61;69.96;100999.50;653373;217;23786;-75
2021/03/18 09:30:36;;;;;;;4.83;3.13;;;;;;;6.58;70.17;101003.58;645854;222;24877;-75
2021/03/18 09:33:15;;;;;;;5.90;2.93;;;;;;;6.45;69.01;100994.50;655588;217;24852;-76
2021/03/18 09:35:43;;;;;;;5.17;2.90;;;;;;;6.64;70.38;100998.03;646922;221;24882;-75
2021/03/18 09:38:16;;;;;;;3.20;2.90;;;;;;;6.73;67.11;100985.31;635722;222;24909;-75
2021/03/18 09:40:44;;;;;;;8.30;3.30;;;;;;;7.14;66.83;100976.55;641629;218;37980;-76
2021/03/18 09:43:12;;;;;;;4.97;3.20;;;;;;;7.40;66.54;100964.41;649475;215;24983;-75
2021/03/18 09:45:39;;;;;;;4.80;3.00;;;;;;;7.69;64.72;100956.73;652116;220;24896;-75
2021/03/18 09:48:08;;;;;;;5.20;2.87;;;;;;;7.74;61.67;100949.48;632120;225;24924;-77
2021/03/18 09:50:36;;;;;;;3.83;3.00;;;;;;;7.67;62.71;100950.84;638786;222;25980;-74
2021/03/18 09:53:07;;;;;;;6.03;2.90;;;;;;;7.80;62.40;100934.44;655909;217;24823;-75
2021/03/18 09:55:34;;;;;;;4.00;2.90;;;;;;;7.95;62.52;100938.52;641480;221;24936;-76
2021/03/18 09:58:10;;;;;;;6.37;2.17;;;;;;;7.85;61.64;100932.34;646430;218;24843;-76
2021/03/18 10:00:38;;;;;;;3.67;2.40;;;;;;;8.10;63.44;100930.93;655050;218;24842;-76
2021/03/18 10:03:06;;;;;;;6.23;3.07;;;;;;;8.07;63.06;100927.27;649737;217;24864;-76
2021/03/18 10:05:35;;;;;;;6.90;2.80;;;;;;;7.87;62.07;100922.69;647772;218;24853;-76
2021/03/18 10:08:02;;;;;;;7.20;3.03;;;;;;;8.21;61.05;100923.21;648580;217;24824;-76
2021/03/18 10:10:31;;;;;;;7.10;3.53;;;;;;;8.29;62.91;100914.38;640267;221;24876;-73
2021/03/18 10:12:59;;;;;;;4.63;2.73;;;;;;;8.78;61.89;100921.14;644950;220;24857;-74
2021/03/18 10:15:27;;;;;;;4.70;3.30;;;;;;;8.87;60.85;100922.22;636979;222;24899;-76
2021/03/18 10:17:55;;;;;;;4.87;2.50;;;;;;;8.61;60.34;100909.92;653956;217;24832;-75
2021/03/18 10:20:24;;;;;;;5.80;3.53;;;;;;;8.70;62.97;100905.80;650601;217;25157;-76
2021/03/18 10:22:51;;;;;;;3.43;2.90;;;;;;;9.37;59.65;100906.62;637798;222;24894;-72
2021/03/18 10:25:19;;;;;;;5.73;3.23;;;;;;;9.14;58.21;100898.50;654827;217;24876;-71
2021/03/18 10:27:46;;;;;;;7.43;2.80;;;;;;;9.12;59.04;100891.30;642848;221;24897;-74
2021/03/18 10:30:16;;;;;;;4.37;2.80;;;;;;;9.02;60.42;100893.81;650219;217;24817;-74
2021/03/18 10:32:44;;;;;;;6.13;2.90;;;;;;;9.44;60.06;100893.53;646540;222;24888;-73
2021/03/18 10:35:12;;;;;;;6.57;2.90;;;;;;;9.60;59.80;100885.82;635017;222;32694;-74
2021/03/18 10:37:40;;;;;;;4.10;3.10;;;;;;;9.76;58.61;100884.94;655560;218;24836;-74
2021/03/18 10:40:14;;;;;;;5.30;3.67;;;;;;;9.89;56.86;100870.02;644059;222;24899;-73
2021/03/18 10:42:42;;;;;;;5.20;3.00;;;;;;;9.42;58.58;100869.44;644689;222;24892;-74
2021/03/18 10:45:14;;;;;;;8.10;3.23;;;;;;;9.14;57.28;100864.29;644712;218;24859;-74
2021/03/18 10:47:42;;;;;;;4.63;2.90;;;;;;;9.08;56.49;100854.40;658663;217;24834;-73
2021/03/18 10:50:12;;;;;;;4.17;2.87;;;;;;;9.16;57.17;100853.34;645110;220;25054;-73
2021/03/18 10:52:40;;;;;;;6.00;2.90;;;;;;;9.06;59.43;100853.70;651728;217;24868;-75
2021/03/18 10:55:09;;;;;;;4.67;2.30;;;;;;;9.08;57.57;100849.69;656821;216;24204;-75
2021/03/18 10:57:36;;;;;;;7.15;3.15;;;;;;;9.13;56.76;100846.25;650381;217;32553;-75
2021/03/18 11:00:05;;;;;;;6.45;3.20;;;;;;;9.22;58.25;100850.73;648702;217;32448;-76
2021/03/18 11:02:33;;;;;;;6.17;3.40;;;;;;;9.52;57.11;100846.99;655605;217;23702;-76
2021/03/18 11:05:01;;;;;;;4.17;3.00;;;;;;;9.64;57.48;100844.36;656109;217;24857;-73
2021/03/18 11:07:29;;;;;;;5.60;3.07;;;;;;;9.42;59.32;100848.66;661106;217;24844;-75
2021/03/18 11:10:07;;;;;;;3.20;2.90;;;;;;;9.29;55.60;100836.33;656917;217;24826;-75
2021/03/18 11:12:35;;;;;;;4.03;2.35;;;;;;;9.70;52.88;100832.99;645345;217;32511;-75
2021/03/18 11:15:03;;;;;;;5.57;2.60;;;;;;;10.02;52.99;100825.19;649866;217;23705;-74
2021/03/18 11:17:31;;;;;;;5.33;2.47;;;;;;;9.57;54.45;100815.48;658160;217;23848;-73
2021/03/18 11:20:10;;;;;;;2.43;2.23;;;;;;;10.58;53.51;100817.06;651406;217;23862;-73
2021/03/18 11:22:39;;;;;;;3.70;2.33;;;;;;;10.82;54.11;100805.48;654675;217;24828;-74
2021/03/18 11:25:08;;;;;;;3.10;2.17;;;;;;;9.70;52.33;100805.72;649832;217;43464;-74
2021/03/18 11:27:36;;;;;;;4.27;2.70;;;;;;;9.62;53.05;100795.63;656296;217;24823;-73
2021/03/18 11:30:04;;;;;;;4.03;2.33;;;;;;;10.23;55.03;100796.61;653565;217;24850;-75
2021/03/18 11:32:32;;;;;;;5.47;2.30;;;;;;;10.35;54.12;100794.77;653878;217;24813;-74
2021/03/18 11:35:00;;;;;;;2.50;2.30;;;;;;;9.53;55.27;100788.09;652130;217;24838;-73
2021/03/18 11:37:28;;;;;;;3.40;2.50;;;;;;;9.50;56.28;100801.33;653047;217;24821;-74
2021/03/18 11:39:56;;;;;;;1.90;1.80;;;;;;;9.58;56.02;100799.43;651484;217;24816;-72
2021/03/18 11:42:24;;;;;;;2.27;2.07;;;;;;;9.67;54.38;100794.77;655905;217;27077;-73